sensor_id;sensor_type;location;lat;lon;timestamp;P1;durP1;ratioP1;P2;durP2;ratioP2
16436;SDS011;8328;52.206;21.006;2023-07-09T00:00:17;6.13;;;4.40;;
16436;SDS011;8328;52.206;21.006;2023-07-09T00:02:44;7.90;;;4.67;;
16436;SDS011;8328;52.206;21.006;2023-07-09T00:05:14;6.73;;;4.43;;
16436;SDS011;8328;52.206;21.006;2023-07-09T00:07:41;5.93;;;4.17;;
16436;SDS011;8328;52.206;21.006;2023-07-09T00:10:13;6.20;;;4.00;;
16436;SDS011;8328;52.206;21.006;2023-07-09T00:12:40;5.50;;;4.13;;
16436;SDS011;8328;52.206;21.006;2023-07-09T00:15:07;5.60;;;4.13;;
16436;SDS011;8328;52.206;21.006;2023-07-09T00:17:34;6.50;;;4.40;;
16436;SDS011;8328;52.206;21.006;2023-07-09T00:20:01;6.30;;;4.37;;
16436;SDS011;8328;52.206;21.006;2023-07-09T00:22:42;8.10;;;4.40;;
16436;SDS011;8328;52.206;21.006;2023-07-09T00:25:13;4.67;;;3.97;;
16436;SDS011;8328;52.206;21.006;2023-07-09T00:27:41;5.30;;;4.03;;
16436;SDS011;8328;52.206;21.006;2023-07-09T00:30:15;6.90;;;4.47;;
16436;SDS011;8328;52.206;21.006;2023-07-09T00:32:43;5.90;;;4.40;;
16436;SDS011;8328;52.206;21.006;2023-07-09T00:35:10;6.40;;;4.10;;
16436;SDS011;8328;52.206;21.006;2023-07-09T00:37:40;5.63;;;4.00;;
16436;SDS011;8328;52.206;21.006;2023-07-09T00:40:18;4.97;;;3.97;;
16436;SDS011;8328;52.206;21.006;2023-07-09T00:42:47;7.47;;;4.03;;
16436;SDS011;8328;52.206;21.006;2023-07-09T00:45:21;5.63;;;4.10;;
16436;SDS011;8328;52.206;21.006;2023-07-09T00:50:33;5.47;;;4.00;;
16436;SDS011;8328;52.206;21.006;2023-07-09T00:53:09;5.70;;;4.07;;
16436;SDS011;8328;52.206;21.006;2023-07-09T00:55:43;5.53;;;3.80;;
16436;SDS011;8328;52.206;21.006;2023-07-09T00:58:13;6.10;;;3.70;;
16436;SDS011;8328;52.206;21.006;2023-07-09T01:00:43;4.17;;;3.53;;
16436;SDS011;8328;52.206;21.006;2023-07-09T01:03:34;7.80;;;3.80;;
16436;SDS011;8328;52.206;21.006;2023-07-09T01:06:02;7.20;;;3.70;;
16436;SDS011;8328;52.206;21.006;2023-07-09T01:08:31;5.27;;;4.10;;
16436;SDS011;8328;52.206;21.006;2023-07-09T01:10:59;4.63;;;3.50;;
16436;SDS011;8328;52.206;21.006;2023-07-09T01:13:26;3.83;;;3.43;;
16436;SDS011;8328;52.206;21.006;2023-07-09T01:15:53;5.63;;;3.67;;
16436;SDS011;8328;52.206;21.006;2023-07-09T01:18:21;5.07;;;3.80;;
16436;SDS011;8328;52.206;21.006;2023-07-09T01:20:47;4.83;;;3.50;;
16436;SDS011;8328;52.206;21.006;2023-07-09T01:23:13;5.70;;;3.60;;
16436;SDS011;8328;52.206;21.006;2023-07-09T01:25:44;6.43;;;3.50;;
16436;SDS011;8328;52.206;21.006;2023-07-09T01:28:16;5.67;;;3.73;;
16436;SDS011;8328;52.206;21.006;2023-07-09T01:30:42;5.80;;;3.60;;
16436;SDS011;8328;52.206;21.006;2023-07-09T01:33:08;6.40;;;3.63;;
16436;SDS011;8328;52.206;21.006;2023-07-09T01:35:36;5.13;;;3.63;;
16436;SDS011;8328;52.206;21.006;2023-07-09T01:38:06;5.57;;;3.50;;
16436;SDS011;8328;52.206;21.006;2023-07-09T01:40:32;4.50;;;3.53;;
16436;SDS011;8328;52.206;21.006;2023-07-09T01:42:59;4.97;;;3.83;;
16436;SDS011;8328;52.206;21.006;2023-07-09T01:45:27;4.23;;;3.50;;
16436;SDS011;8328;52.206;21.006;2023-07-09T01:47:53;4.40;;;3.67;;
16436;SDS011;8328;52.206;21.006;2023-07-09T01:50:20;7.10;;;3.60;;
16436;SDS011;8328;52.206;21.006;2023-07-09T01:52:49;4.67;;;3.60;;
16436;SDS011;8328;52.206;21.006;2023-07-09T01:55:14;5.90;;;3.70;;
16436;SDS011;8328;52.206;21.006;2023-07-09T01:57:42;4.80;;;3.53;;
16436;SDS011;8328;52.206;21.006;2023-07-09T02:00:10;4.33;;;3.87;;
16436;SDS011;8328;52.206;21.006;2023-07-09T02:02:41;4.53;;;4.00;;
16436;SDS011;8328;52.206;21.006;2023-07-09T02:05:11;4.57;;;3.50;;
16436;SDS011;8328;52.206;21.006;2023-07-09T02:07:39;4.70;;;3.50;;
16436;SDS011;8328;52.206;21.006;2023-07-09T02:10:06;5.40;;;3.77;;
16436;SDS011;8328;52.206;21.006;2023-07-09T02:12:32;4.87;;;3.80;;
16436;SDS011;8328;52.206;21.006;2023-07-09T02:14:58;5.17;;;3.80;;
16436;SDS011;8328;52.206;21.006;2023-07-09T02:17:24;3.93;;;3.43;;
16436;SDS011;8328;52.206;21.006;2023-07-09T02:19:50;5.47;;;3.73;;
16436;SDS011;8328;52.206;21.006;2023-07-09T02:22:16;6.60;;;3.93;;
16436;SDS011;8328;52.206;21.006;2023-07-09T02:24:42;6.10;;;3.83;;
16436;SDS011;8328;52.206;21.006;2023-07-09T02:27:08;5.33;;;4.10;;
16436;SDS011;8328;52.206;21.006;2023-07-09T02:29:35;4.43;;;3.87;;
16436;SDS011;8328;52.206;21.006;2023-07-09T02:32:02;5.03;;;3.80;;
16436;SDS011;8328;52.206;21.006;2023-07-09T02:34:28;4.13;;;3.73;;
16436;SDS011;8328;52.206;21.006;2023-07-09T02:36:55;4.67;;;3.77;;
16436;SDS011;8328;52.206;21.006;2023-07-09T02:39:22;4.57;;;3.87;;
16436;SDS011;8328;52.206;21.006;2023-07-09T02:41:49;5.07;;;3.73;;
16436;SDS011;8328;52.206;21.006;2023-07-09T02:44:15;4.97;;;4.30;;
16436;SDS011;8328;52.206;21.006;2023-07-09T02:46:42;6.07;;;3.90;;
16436;SDS011;8328;52.206;21.006;2023-07-09T02:49:08;6.80;;;3.87;;
16436;SDS011;8328;52.206;21.006;2023-07-09T02:51:35;4.73;;;4.10;;
16436;SDS011;8328;52.206;21.006;2023-07-09T02:54:02;6.13;;;4.20;;
16436;SDS011;8328;52.206;21.006;2023-07-09T02:56:30;6.50;;;3.97;;
16436;SDS011;8328;52.206;21.006;2023-07-09T02:58:56;7.70;;;4.50;;
16436;SDS011;8328;52.206;21.006;2023-07-09T03:01:22;5.00;;;4.20;;
16436;SDS011;8328;52.206;21.006;2023-07-09T03:03:52;7.47;;;4.10;;
16436;SDS011;8328;52.206;21.006;2023-07-09T03:06:19;6.00;;;3.97;;
16436;SDS011;8328;52.206;21.006;2023-07-09T03:08:48;9.10;;;4.93;;
16436;SDS011;8328;52.206;21.006;2023-07-09T03:11:15;5.03;;;4.10;;
16436;SDS011;8328;52.206;21.006;2023-07-09T03:13:42;5.00;;;4.20;;
16436;SDS011;8328;52.206;21.006;2023-07-09T03:16:08;5.93;;;4.23;;
16436;SDS011;8328;52.206;21.006;2023-07-09T03:18:33;6.37;;;4.40;;
16436;SDS011;8328;52.206;21.006;2023-07-09T03:20:59;5.50;;;4.40;;
16436;SDS011;8328;52.206;21.006;2023-07-09T03:23:25;4.90;;;4.00;;
16436;SDS011;8328;52.206;21.006;2023-07-09T03:25:52;5.03;;;3.93;;
16436;SDS011;8328;52.206;21.006;2023-07-09T03:28:18;5.20;;;4.30;;
16436;SDS011;8328;52.206;21.006;2023-07-09T03:30:44;6.73;;;4.50;;
16436;SDS011;8328;52.206;21.006;2023-07-09T03:33:12;5.03;;;4.50;;
16436;SDS011;8328;52.206;21.006;2023-07-09T03:35:39;6.33;;;4.20;;
16436;SDS011;8328;52.206;21.006;2023-07-09T03:38:06;6.20;;;4.50;;
16436;SDS011;8328;52.206;21.006;2023-07-09T03:40:33;6.17;;;4.20;;
16436;SDS011;8328;52.206;21.006;2023-07-09T03:42:59;10.40;;;4.17;;
16436;SDS011;8328;52.206;21.006;2023-07-09T03:45:27;4.90;;;4.40;;
16436;SDS011;8328;52.206;21.006;2023-07-09T03:47:54;4.17;;;3.73;;
16436;SDS011;8328;52.206;21.006;2023-07-09T03:50:33;5.63;;;4.00;;
16436;SDS011;8328;52.206;21.006;2023-07-09T03:52:59;5.43;;;4.03;;
16436;SDS011;8328;52.206;21.006;2023-07-09T03:55:25;6.07;;;4.70;;
16436;SDS011;8328;52.206;21.006;2023-07-09T03:57:53;5.57;;;4.10;;
16436;SDS011;8328;52.206;21.006;2023-07-09T04:00:21;4.37;;;3.60;;
16436;SDS011;8328;52.206;21.006;2023-07-09T04:02:47;4.57;;;3.83;;
16436;SDS011;8328;52.206;21.006;2023-07-09T04:05:13;5.23;;;3.93;;
16436;SDS011;8328;52.206;21.006;2023-07-09T04:07:39;5.07;;;3.73;;
16436;SDS011;8328;52.206;21.006;2023-07-09T04:10:05;4.43;;;3.80;;
16436;SDS011;8328;52.206;21.006;2023-07-09T04:12:32;7.47;;;3.73;;
16436;SDS011;8328;52.206;21.006;2023-07-09T04:14:58;6.03;;;4.20;;
16436;SDS011;8328;52.206;21.006;2023-07-09T04:17:28;8.63;;;4.53;;
16436;SDS011;8328;52.206;21.006;2023-07-09T04:19:53;5.43;;;3.67;;
16436;SDS011;8328;52.206;21.006;2023-07-09T04:22:19;5.27;;;3.67;;
16436;SDS011;8328;52.206;21.006;2023-07-09T04:24:48;3.67;;;3.20;;
16436;SDS011;8328;52.206;21.006;2023-07-09T04:27:15;5.10;;;3.63;;
16436;SDS011;8328;52.206;21.006;2023-07-09T04:29:41;6.37;;;3.67;;
16436;SDS011;8328;52.206;21.006;2023-07-09T04:32:07;6.17;;;3.30;;
16436;SDS011;8328;52.206;21.006;2023-07-09T04:34:37;5.83;;;3.50;;
16436;SDS011;8328;52.206;21.006;2023-07-09T04:37:06;6.13;;;3.67;;
16436;SDS011;8328;52.206;21.006;2023-07-09T04:39:34;3.83;;;3.27;;
16436;SDS011;8328;52.206;21.006;2023-07-09T04:41:59;5.47;;;3.43;;
16436;SDS011;8328;52.206;21.006;2023-07-09T04:44:26;3.60;;;3.10;;
16436;SDS011;8328;52.206;21.006;2023-07-09T04:46:51;8.50;;;3.57;;
16436;SDS011;8328;52.206;21.006;2023-07-09T04:49:18;6.63;;;3.50;;
16436;SDS011;8328;52.206;21.006;2023-07-09T04:51:43;4.57;;;3.30;;
16436;SDS011;8328;52.206;21.006;2023-07-09T04:54:09;7.43;;;2.90;;
16436;SDS011;8328;52.206;21.006;2023-07-09T04:56:35;4.20;;;3.17;;
16436;SDS011;8328;52.206;21.006;2023-07-09T04:59:02;3.13;;;2.80;;
16436;SDS011;8328;52.206;21.006;2023-07-09T05:01:28;4.63;;;3.17;;
16436;SDS011;8328;52.206;21.006;2023-07-09T05:03:54;6.30;;;3.53;;
16436;SDS011;8328;52.206;21.006;2023-07-09T05:06:21;6.43;;;3.03;;
16436;SDS011;8328;52.206;21.006;2023-07-09T05:08:47;3.40;;;2.77;;
16436;SDS011;8328;52.206;21.006;2023-07-09T05:11:13;3.17;;;2.67;;
16436;SDS011;8328;52.206;21.006;2023-07-09T05:13:40;5.83;;;3.00;;
16436;SDS011;8328;52.206;21.006;2023-07-09T05:16:06;3.43;;;2.73;;
16436;SDS011;8328;52.206;21.006;2023-07-09T05:18:32;5.07;;;2.83;;
16436;SDS011;8328;52.206;21.006;2023-07-09T05:20:58;4.73;;;2.83;;
16436;SDS011;8328;52.206;21.006;2023-07-09T05:23:24;6.40;;;2.93;;
16436;SDS011;8328;52.206;21.006;2023-07-09T05:25:57;4.10;;;2.50;;
16436;SDS011;8328;52.206;21.006;2023-07-09T05:28:24;4.50;;;2.47;;
16436;SDS011;8328;52.206;21.006;2023-07-09T05:30:49;3.60;;;2.80;;
16436;SDS011;8328;52.206;21.006;2023-07-09T05:33:16;5.40;;;2.53;;
16436;SDS011;8328;52.206;21.006;2023-07-09T05:35:43;4.23;;;2.53;;
16436;SDS011;8328;52.206;21.006;2023-07-09T05:38:10;5.23;;;2.67;;
16436;SDS011;8328;52.206;21.006;2023-07-09T05:40:36;3.03;;;2.73;;
16436;SDS011;8328;52.206;21.006;2023-07-09T05:43:02;4.37;;;2.60;;
16436;SDS011;8328;52.206;21.006;2023-07-09T05:45:27;5.13;;;2.50;;
16436;SDS011;8328;52.206;21.006;2023-07-09T05:47:53;2.93;;;2.30;;
16436;SDS011;8328;52.206;21.006;2023-07-09T05:50:19;4.23;;;2.10;;
16436;SDS011;8328;52.206;21.006;2023-07-09T05:52:45;3.13;;;2.50;;
16436;SDS011;8328;52.206;21.006;2023-07-09T05:55:11;2.87;;;2.57;;
16436;SDS011;8328;52.206;21.006;2023-07-09T05:57:38;2.90;;;2.30;;
16436;SDS011;8328;52.206;21.006;2023-07-09T06:00:04;3.17;;;2.40;;
16436;SDS011;8328;52.206;21.006;2023-07-09T06:02:30;3.40;;;2.60;;
16436;SDS011;8328;52.206;21.006;2023-07-09T06:05:01;2.77;;;2.43;;
16436;SDS011;8328;52.206;21.006;2023-07-09T06:07:27;3.10;;;2.20;;
16436;SDS011;8328;52.206;21.006;2023-07-09T06:09:53;4.73;;;2.43;;
16436;SDS011;8328;52.206;21.006;2023-07-09T06:12:19;2.80;;;2.30;;
16436;SDS011;8328;52.206;21.006;2023-07-09T06:14:45;3.93;;;2.60;;
16436;SDS011;8328;52.206;21.006;2023-07-09T06:17:11;3.37;;;2.43;;
16436;SDS011;8328;52.206;21.006;2023-07-09T06:19:38;3.20;;;2.70;;
16436;SDS011;8328;52.206;21.006;2023-07-09T06:22:04;4.77;;;2.70;;
16436;SDS011;8328;52.206;21.006;2023-07-09T06:24:30;3.53;;;2.73;;
16436;SDS011;8328;52.206;21.006;2023-07-09T06:26:56;2.77;;;2.10;;
16436;SDS011;8328;52.206;21.006;2023-07-09T06:29:21;5.20;;;2.63;;
16436;SDS011;8328;52.206;21.006;2023-07-09T06:31:47;6.03;;;2.60;;
16436;SDS011;8328;52.206;21.006;2023-07-09T06:34:13;3.63;;;2.50;;
16436;SDS011;8328;52.206;21.006;2023-07-09T06:36:39;4.63;;;2.80;;
16436;SDS011;8328;52.206;21.006;2023-07-09T06:39:05;5.27;;;2.37;;
16436;SDS011;8328;52.206;21.006;2023-07-09T06:41:31;2.87;;;2.30;;
16436;SDS011;8328;52.206;21.006;2023-07-09T06:44:04;9.23;;;2.67;;
16436;SDS011;8328;52.206;21.006;2023-07-09T06:46:31;4.97;;;2.63;;
16436;SDS011;8328;52.206;21.006;2023-07-09T06:48:56;3.90;;;2.33;;
16436;SDS011;8328;52.206;21.006;2023-07-09T06:51:22;4.10;;;2.50;;
16436;SDS011;8328;52.206;21.006;2023-07-09T06:53:48;3.77;;;2.13;;
16436;SDS011;8328;52.206;21.006;2023-07-09T06:56:15;4.33;;;2.30;;
16436;SDS011;8328;52.206;21.006;2023-07-09T06:58:41;3.70;;;2.17;;
16436;SDS011;8328;52.206;21.006;2023-07-09T07:01:08;5.17;;;2.50;;
16436;SDS011;8328;52.206;21.006;2023-07-09T07:03:36;2.73;;;2.20;;
16436;SDS011;8328;52.206;21.006;2023-07-09T07:06:02;2.77;;;1.97;;
16436;SDS011;8328;52.206;21.006;2023-07-09T07:08:30;3.20;;;2.10;;
16436;SDS011;8328;52.206;21.006;2023-07-09T07:10:56;3.67;;;2.10;;
16436;SDS011;8328;52.206;21.006;2023-07-09T07:13:31;3.20;;;2.13;;
16436;SDS011;8328;52.206;21.006;2023-07-09T07:16:00;3.10;;;2.13;;
16436;SDS011;8328;52.206;21.006;2023-07-09T07:18:27;3.83;;;2.53;;
16436;SDS011;8328;52.206;21.006;2023-07-09T07:20:53;3.20;;;2.30;;
16436;SDS011;8328;52.206;21.006;2023-07-09T07:23:19;3.20;;;2.50;;
16436;SDS011;8328;52.206;21.006;2023-07-09T07:25:45;3.43;;;2.20;;
16436;SDS011;8328;52.206;21.006;2023-07-09T07:28:11;2.77;;;2.40;;
16436;SDS011;8328;52.206;21.006;2023-07-09T07:30:38;2.73;;;2.17;;
16436;SDS011;8328;52.206;21.006;2023-07-09T07:33:04;3.87;;;2.30;;
16436;SDS011;8328;52.206;21.006;2023-07-09T07:35:30;2.93;;;2.23;;
16436;SDS011;8328;52.206;21.006;2023-07-09T07:37:57;2.47;;;1.87;;
16436;SDS011;8328;52.206;21.006;2023-07-09T07:40:23;4.03;;;2.00;;
16436;SDS011;8328;52.206;21.006;2023-07-09T07:42:48;2.03;;;1.60;;
16436;SDS011;8328;52.206;21.006;2023-07-09T07:45:14;5.33;;;2.00;;
16436;SDS011;8328;52.206;21.006;2023-07-09T07:47:40;2.80;;;1.80;;
16436;SDS011;8328;52.206;21.006;2023-07-09T07:50:09;4.03;;;2.43;;
16436;SDS011;8328;52.206;21.006;2023-07-09T07:52:35;3.60;;;2.27;;
16436;SDS011;8328;52.206;21.006;2023-07-09T07:55:05;2.20;;;1.83;;
16436;SDS011;8328;52.206;21.006;2023-07-09T07:57:49;2.67;;;2.00;;
16436;SDS011;8328;52.206;21.006;2023-07-09T08:00:16;3.47;;;2.20;;
16436;SDS011;8328;52.206;21.006;2023-07-09T08:02:42;4.87;;;2.43;;
16436;SDS011;8328;52.206;21.006;2023-07-09T08:05:08;2.30;;;1.63;;
16436;SDS011;8328;52.206;21.006;2023-07-09T08:07:34;2.27;;;1.50;;
16436;SDS011;8328;52.206;21.006;2023-07-09T08:10:02;2.83;;;1.57;;
16436;SDS011;8328;52.206;21.006;2023-07-09T08:12:29;2.07;;;1.87;;
16436;SDS011;8328;52.206;21.006;2023-07-09T08:14:54;2.10;;;1.90;;
16436;SDS011;8328;52.206;21.006;2023-07-09T08:17:26;3.07;;;1.97;;
16436;SDS011;8328;52.206;21.006;2023-07-09T08:19:53;1.97;;;1.70;;
16436;SDS011;8328;52.206;21.006;2023-07-09T08:22:19;2.20;;;1.50;;
16436;SDS011;8328;52.206;21.006;2023-07-09T08:24:46;2.83;;;1.83;;
16436;SDS011;8328;52.206;21.006;2023-07-09T08:27:14;2.30;;;2.00;;
16436;SDS011;8328;52.206;21.006;2023-07-09T08:29:40;2.47;;;1.80;;
16436;SDS011;8328;52.206;21.006;2023-07-09T08:32:09;3.27;;;1.60;;
16436;SDS011;8328;52.206;21.006;2023-07-09T08:34:37;1.73;;;1.60;;
16436;SDS011;8328;52.206;21.006;2023-07-09T08:37:04;2.30;;;1.60;;
16436;SDS011;8328;52.206;21.006;2023-07-09T08:39:31;2.53;;;1.50;;
16436;SDS011;8328;52.206;21.006;2023-07-09T08:42:07;4.17;;;2.57;;
16436;SDS011;8328;52.206;21.006;2023-07-09T08:49:47;3.20;;;1.73;;
16436;SDS011;8328;52.206;21.006;2023-07-09T08:52:40;1.80;;;1.40;;
16436;SDS011;8328;52.206;21.006;2023-07-09T08:55:17;3.13;;;1.40;;
16436;SDS011;8328;52.206;21.006;2023-07-09T08:57:47;2.53;;;1.50;;
16436;SDS011;8328;52.206;21.006;2023-07-09T09:00:34;1.90;;;1.60;;
16436;SDS011;8328;52.206;21.006;2023-07-09T09:05:48;2.50;;;1.50;;
16436;SDS011;8328;52.206;21.006;2023-07-09T09:10:56;1.50;;;1.40;;
16436;SDS011;8328;52.206;21.006;2023-07-09T09:13:30;4.83;;;3.60;;
16436;SDS011;8328;52.206;21.006;2023-07-09T09:15:58;2.93;;;1.57;;
16436;SDS011;8328;52.206;21.006;2023-07-09T09:18:31;2.73;;;1.90;;
16436;SDS011;8328;52.206;21.006;2023-07-09T09:21:05;1.83;;;1.43;;
16436;SDS011;8328;52.206;21.006;2023-07-09T09:23:52;1.90;;;1.50;;
16436;SDS011;8328;52.206;21.006;2023-07-09T09:26:24;2.67;;;2.00;;
16436;SDS011;8328;52.206;21.006;2023-07-09T09:29:00;1.83;;;1.20;;
16436;SDS011;8328;52.206;21.006;2023-07-09T09:31:37;1.87;;;1.43;;
16436;SDS011;8328;52.206;21.006;2023-07-09T09:34:04;4.83;;;1.10;;
16436;SDS011;8328;52.206;21.006;2023-07-09T09:36:31;3.10;;;1.30;;
16436;SDS011;8328;52.206;21.006;2023-07-09T09:39:02;1.57;;;1.20;;
16436;SDS011;8328;52.206;21.006;2023-07-09T09:41:31;2.77;;;1.50;;
16436;SDS011;8328;52.206;21.006;2023-07-09T09:44:01;4.30;;;1.33;;
16436;SDS011;8328;52.206;21.006;2023-07-09T09:46:27;4.07;;;1.40;;
16436;SDS011;8328;52.206;21.006;2023-07-09T09:48:54;1.50;;;1.23;;
16436;SDS011;8328;52.206;21.006;2023-07-09T09:51:22;2.73;;;1.30;;
16436;SDS011;8328;52.206;21.006;2023-07-09T09:53:49;2.63;;;1.33;;
16436;SDS011;8328;52.206;21.006;2023-07-09T09:56:18;2.30;;;1.00;;
16436;SDS011;8328;52.206;21.006;2023-07-09T09:58:51;2.27;;;1.40;;
16436;SDS011;8328;52.206;21.006;2023-07-09T10:01:18;1.70;;;1.23;;
16436;SDS011;8328;52.206;21.006;2023-07-09T10:03:46;2.30;;;1.50;;
16436;SDS011;8328;52.206;21.006;2023-07-09T10:06:17;1.43;;;1.30;;
16436;SDS011;8328;52.206;21.006;2023-07-09T10:09:33;2.57;;;1.50;;
16436;SDS011;8328;52.206;21.006;2023-07-09T10:11:48;1.50;;;1.40;;
16436;SDS011;8328;52.206;21.006;2023-07-09T10:16:58;2.73;;;1.50;;
16436;SDS011;8328;52.206;21.006;2023-07-09T10:19:42;2.37;;;1.40;;
16436;SDS011;8328;52.206;21.006;2023-07-09T10:25:32;2.93;;;1.40;;
16436;SDS011;8328;52.206;21.006;2023-07-09T10:28:24;2.73;;;1.43;;
16436;SDS011;8328;52.206;21.006;2023-07-09T10:38:55;1.40;;;1.27;;
16436;SDS011;8328;52.206;21.006;2023-07-09T10:41:31;2.07;;;1.30;;
16436;SDS011;8328;52.206;21.006;2023-07-09T10:46:48;1.57;;;1.27;;
16436;SDS011;8328;52.206;21.006;2023-07-09T10:49:21;1.70;;;1.40;;
16436;SDS011;8328;52.206;21.006;2023-07-09T10:52:51;1.33;;;1.13;;
16436;SDS011;8328;52.206;21.006;2023-07-09T11:00:38;1.23;;;1.13;;
16436;SDS011;8328;52.206;21.006;2023-07-09T11:03:10;1.47;;;1.20;;
16436;SDS011;8328;52.206;21.006;2023-07-09T11:05:39;3.70;;;1.00;;
16436;SDS011;8328;52.206;21.006;2023-07-09T11:08:15;1.07;;;0.87;;
16436;SDS011;8328;52.206;21.006;2023-07-09T11:10:56;1.77;;;1.27;;
16436;SDS011;8328;52.206;21.006;2023-07-09T11:15:56;1.00;;;0.90;;
16436;SDS011;8328;52.206;21.006;2023-07-09T11:18:24;1.83;;;1.10;;
16436;SDS011;8328;52.206;21.006;2023-07-09T11:21:40;1.30;;;1.10;;
16436;SDS011;8328;52.206;21.006;2023-07-09T11:23:46;1.73;;;1.10;;
16436;SDS011;8328;52.206;21.006;2023-07-09T11:28:51;2.47;;;1.17;;
16436;SDS011;8328;52.206;21.006;2023-07-09T11:31:51;2.00;;;1.30;;
16436;SDS011;8328;52.206;21.006;2023-07-09T11:36:49;2.67;;;1.20;;
16436;SDS011;8328;52.206;21.006;2023-07-09T11:39:39;2.27;;;1.00;;
16436;SDS011;8328;52.206;21.006;2023-07-09T11:42:29;2.00;;;0.90;;
16436;SDS011;8328;52.206;21.006;2023-07-09T11:45:02;1.13;;;1.03;;
16436;SDS011;8328;52.206;21.006;2023-07-09T11:47:46;1.70;;;1.20;;
16436;SDS011;8328;52.206;21.006;2023-07-09T11:50:24;0.80;;;0.80;;
16436;SDS011;8328;52.206;21.006;2023-07-09T11:53:04;1.90;;;1.00;;
16436;SDS011;8328;52.206;21.006;2023-07-09T11:55:55;1.00;;;0.90;;
16436;SDS011;8328;52.206;21.006;2023-07-09T11:58:21;1.40;;;0.70;;
16436;SDS011;8328;52.206;21.006;2023-07-09T12:00:50;2.10;;;1.10;;
16436;SDS011;8328;52.206;21.006;2023-07-09T12:05:49;0.97;;;0.80;;
16436;SDS011;8328;52.206;21.006;2023-07-09T12:08:17;1.50;;;0.90;;
16436;SDS011;8328;52.206;21.006;2023-07-09T12:10:46;1.40;;;1.00;;
16436;SDS011;8328;52.206;21.006;2023-07-09T12:13:13;1.57;;;0.90;;
16436;SDS011;8328;52.206;21.006;2023-07-09T12:15:39;0.97;;;0.90;;
16436;SDS011;8328;52.206;21.006;2023-07-09T12:18:17;1.47;;;1.13;;
16436;SDS011;8328;52.206;21.006;2023-07-09T12:20:47;1.60;;;1.10;;
16436;SDS011;8328;52.206;21.006;2023-07-09T12:25:53;1.20;;;1.00;;
16436;SDS011;8328;52.206;21.006;2023-07-09T12:28:20;2.80;;;1.10;;
16436;SDS011;8328;52.206;21.006;2023-07-09T12:30:51;1.23;;;1.00;;
16436;SDS011;8328;52.206;21.006;2023-07-09T12:33:20;1.35;;;1.02;;
16436;SDS011;8328;52.206;21.006;2023-07-09T12:35:50;1.17;;;0.98;;
16436;SDS011;8328;52.206;21.006;2023-07-09T12:38:22;1.38;;;1.23;;
16436;SDS011;8328;52.206;21.006;2023-07-09T12:40:48;1.30;;;1.10;;
16436;SDS011;8328;52.206;21.006;2023-07-09T12:43:21;1.17;;;1.08;;
16436;SDS011;8328;52.206;21.006;2023-07-09T12:45:53;3.15;;;1.30;;
16436;SDS011;8328;52.206;21.006;2023-07-09T12:48:24;1.48;;;1.35;;
16436;SDS011;8328;52.206;21.006;2023-07-09T12:50:54;1.38;;;1.20;;
16436;SDS011;8328;52.206;21.006;2023-07-09T12:53:23;1.00;;;0.80;;
16436;SDS011;8328;52.206;21.006;2023-07-09T12:55:58;2.60;;;1.20;;
16436;SDS011;8328;52.206;21.006;2023-07-09T12:58:30;2.40;;;1.45;;
16436;SDS011;8328;52.206;21.006;2023-07-09T13:00:57;1.35;;;1.25;;
16436;SDS011;8328;52.206;21.006;2023-07-09T13:03:26;2.40;;;1.25;;
16436;SDS011;8328;52.206;21.006;2023-07-09T13:05:54;1.80;;;1.40;;
16436;SDS011;8328;52.206;21.006;2023-07-09T13:08:26;1.20;;;1.10;;
16436;SDS011;8328;52.206;21.006;2023-07-09T13:10:53;1.42;;;1.15;;
16436;SDS011;8328;52.206;21.006;2023-07-09T13:13:20;1.27;;;1.17;;
16436;SDS011;8328;52.206;21.006;2023-07-09T13:15:51;1.13;;;1.02;;
16436;SDS011;8328;52.206;21.006;2023-07-09T13:18:22;1.20;;;1.00;;
16436;SDS011;8328;52.206;21.006;2023-07-09T13:20:50;1.20;;;1.10;;
16436;SDS011;8328;52.206;21.006;2023-07-09T13:23:17;1.30;;;1.20;;
16436;SDS011;8328;52.206;21.006;2023-07-09T13:25:45;1.20;;;1.10;;
16436;SDS011;8328;52.206;21.006;2023-07-09T13:28:25;3.80;;;1.63;;
16436;SDS011;8328;52.206;21.006;2023-07-09T13:30:52;1.65;;;1.27;;
16436;SDS011;8328;52.206;21.006;2023-07-09T13:33:21;1.48;;;1.20;;
16436;SDS011;8328;52.206;21.006;2023-07-09T13:35:48;2.85;;;1.30;;
16436;SDS011;8328;52.206;21.006;2023-07-09T13:38:18;2.25;;;1.40;;
16436;SDS011;8328;52.206;21.006;2023-07-09T13:40:46;2.25;;;1.42;;
16436;SDS011;8328;52.206;21.006;2023-07-09T13:43:15;2.95;;;1.63;;
16436;SDS011;8328;52.206;21.006;2023-07-09T13:45:48;1.83;;;1.70;;
16436;SDS011;8328;52.206;21.006;2023-07-09T13:48:15;1.88;;;1.60;;
16436;SDS011;8328;52.206;21.006;2023-07-09T13:50:44;1.80;;;1.70;;
16436;SDS011;8328;52.206;21.006;2023-07-09T13:53:17;2.90;;;2.25;;
16436;SDS011;8328;52.206;21.006;2023-07-09T13:55:47;3.08;;;1.80;;
16436;SDS011;8328;52.206;21.006;2023-07-09T13:58:15;1.90;;;1.80;;
16436;SDS011;8328;52.206;21.006;2023-07-09T14:00:42;2.08;;;1.98;;
16436;SDS011;8328;52.206;21.006;2023-07-09T14:03:12;2.58;;;1.92;;
16436;SDS011;8328;52.206;21.006;2023-07-09T14:05:48;2.00;;;1.88;;
16436;SDS011;8328;52.206;21.006;2023-07-09T14:08:17;2.13;;;1.88;;
16436;SDS011;8328;52.206;21.006;2023-07-09T14:10:45;2.30;;;1.92;;
16436;SDS011;8328;52.206;21.006;2023-07-09T14:13:18;3.05;;;2.00;;
16436;SDS011;8328;52.206;21.006;2023-07-09T14:15:46;2.50;;;2.05;;
16436;SDS011;8328;52.206;21.006;2023-07-09T14:18:16;2.40;;;2.20;;
16436;SDS011;8328;52.206;21.006;2023-07-09T14:20:44;2.30;;;2.08;;
16436;SDS011;8328;52.206;21.006;2023-07-09T14:23:10;2.25;;;2.10;;
16436;SDS011;8328;52.206;21.006;2023-07-09T14:25:38;2.00;;;1.90;;
16436;SDS011;8328;52.206;21.006;2023-07-09T14:28:07;3.72;;;3.35;;
16436;SDS011;8328;52.206;21.006;2023-07-09T14:30:38;2.40;;;2.20;;
16436;SDS011;8328;52.206;21.006;2023-07-09T14:33:07;3.97;;;1.98;;
16436;SDS011;8328;52.206;21.006;2023-07-09T14:35:38;2.00;;;1.90;;
16436;SDS011;8328;52.206;21.006;2023-07-09T14:38:06;2.13;;;2.00;;
16436;SDS011;8328;52.206;21.006;2023-07-09T14:40:45;2.40;;;2.20;;
16436;SDS011;8328;52.206;21.006;2023-07-09T14:43:12;2.63;;;2.22;;
16436;SDS011;8328;52.206;21.006;2023-07-09T14:45:38;2.60;;;1.90;;
16436;SDS011;8328;52.206;21.006;2023-07-09T14:48:08;2.40;;;2.20;;
16436;SDS011;8328;52.206;21.006;2023-07-09T14:50:39;2.80;;;2.13;;
16436;SDS011;8328;52.206;21.006;2023-07-09T14:53:14;2.40;;;2.20;;
16436;SDS011;8328;52.206;21.006;2023-07-09T14:55:42;2.28;;;2.15;;
16436;SDS011;8328;52.206;21.006;2023-07-09T14:58:15;4.10;;;2.08;;
16436;SDS011;8328;52.206;21.006;2023-07-09T15:00:43;2.40;;;2.20;;
16436;SDS011;8328;52.206;21.006;2023-07-09T15:03:11;2.05;;;1.95;;
16436;SDS011;8328;52.206;21.006;2023-07-09T15:05:48;2.30;;;2.10;;
16436;SDS011;8328;52.206;21.006;2023-07-09T15:08:15;3.03;;;2.00;;
16436;SDS011;8328;52.206;21.006;2023-07-09T15:10:44;3.03;;;2.10;;
16436;SDS011;8328;52.206;21.006;2023-07-09T15:13:21;2.20;;;1.98;;
16436;SDS011;8328;52.206;21.006;2023-07-09T15:15:54;1.70;;;1.60;;
16436;SDS011;8328;52.206;21.006;2023-07-09T15:18:20;1.77;;;1.67;;
16436;SDS011;8328;52.206;21.006;2023-07-09T15:20:53;1.42;;;1.33;;
16436;SDS011;8328;52.206;21.006;2023-07-09T15:23:23;2.13;;;1.38;;
16436;SDS011;8328;52.206;21.006;2023-07-09T15:25:50;2.08;;;1.30;;
16436;SDS011;8328;52.206;21.006;2023-07-09T15:28:17;1.73;;;1.58;;
16436;SDS011;8328;52.206;21.006;2023-07-09T15:30:43;1.98;;;1.60;;
16436;SDS011;8328;52.206;21.006;2023-07-09T15:33:13;2.63;;;1.73;;
16436;SDS011;8328;52.206;21.006;2023-07-09T15:35:43;2.90;;;1.63;;
16436;SDS011;8328;52.206;21.006;2023-07-09T15:38:31;1.80;;;1.30;;
16436;SDS011;8328;52.206;21.006;2023-07-09T15:40:59;2.43;;;1.53;;
16436;SDS011;8328;52.206;21.006;2023-07-09T15:43:25;1.50;;;1.40;;
16436;SDS011;8328;52.206;21.006;2023-07-09T15:45:54;1.47;;;1.23;;
16436;SDS011;8328;52.206;21.006;2023-07-09T15:48:26;2.10;;;1.40;;